sensor_id;sensor_type;location;lat;lon;timestamp;P1;durP1;ratioP1;P2;durP2;ratioP2
48651;SDS011;34442;52.362;-1.302;2023-08-24T00:00:33;2.45;;;1.40;;
48651;SDS011;34442;52.362;-1.302;2023-08-24T00:02:59;2.72;;;1.27;;
48651;SDS011;34442;52.362;-1.302;2023-08-24T00:05:28;2.70;;;1.48;;
48651;SDS011;34442;52.362;-1.302;2023-08-24T00:07:53;2.97;;;1.52;;
48651;SDS011;34442;52.362;-1.302;2023-08-24T00:10:19;3.08;;;1.50;;
48651;SDS011;34442;52.362;-1.302;2023-08-24T00:12:44;4.65;;;1.55;;
48651;SDS011;34442;52.362;-1.302;2023-08-24T00:15:10;3.10;;;1.38;;
48651;SDS011;34442;52.362;-1.302;2023-08-24T00:17:36;2.67;;;1.30;;
48651;SDS011;34442;52.362;-1.302;2023-08-24T00:20:03;2.60;;;1.42;;
48651;SDS011;34442;52.362;-1.302;2023-08-24T00:22:32;3.00;;;1.30;;
48651;SDS011;34442;52.362;-1.302;2023-08-24T00:24:58;3.20;;;1.45;;
48651;SDS011;34442;52.362;-1.302;2023-08-24T00:27:23;1.95;;;1.20;;
48651;SDS011;34442;52.362;-1.302;2023-08-24T00:29:49;3.28;;;1.60;;
48651;SDS011;34442;52.362;-1.302;2023-08-24T00:32:14;3.47;;;1.60;;
48651;SDS011;34442;52.362;-1.302;2023-08-24T00:34:39;2.97;;;1.42;;
48651;SDS011;34442;52.362;-1.302;2023-08-24T00:37:08;3.30;;;1.45;;
48651;SDS011;34442;52.362;-1.302;2023-08-24T00:39:33;3.58;;;1.63;;
48651;SDS011;34442;52.362;-1.302;2023-08-24T00:41:59;2.63;;;1.48;;
48651;SDS011;34442;52.362;-1.302;2023-08-24T00:44:24;3.63;;;1.60;;
48651;SDS011;34442;52.362;-1.302;2023-08-24T00:46:50;2.33;;;1.50;;
48651;SDS011;34442;52.362;-1.302;2023-08-24T00:49:15;3.05;;;1.40;;
48651;SDS011;34442;52.362;-1.302;2023-08-24T00:51:41;3.40;;;1.50;;
48651;SDS011;34442;52.362;-1.302;2023-08-24T00:54:06;2.53;;;1.45;;
48651;SDS011;34442;52.362;-1.302;2023-08-24T00:56:36;2.90;;;1.48;;
48651;SDS011;34442;52.362;-1.302;2023-08-24T00:59:02;3.83;;;1.40;;
48651;SDS011;34442;52.362;-1.302;2023-08-24T01:01:27;2.88;;;1.40;;
48651;SDS011;34442;52.362;-1.302;2023-08-24T01:03:56;2.92;;;1.52;;
48651;SDS011;34442;52.362;-1.302;2023-08-24T01:06:21;3.30;;;1.60;;
48651;SDS011;34442;52.362;-1.302;2023-08-24T01:08:47;2.60;;;1.50;;
48651;SDS011;34442;52.362;-1.302;2023-08-24T01:16:31;3.55;;;1.52;;
48651;SDS011;34442;52.362;-1.302;2023-08-24T01:19:01;3.40;;;1.60;;
48651;SDS011;34442;52.362;-1.302;2023-08-24T01:21:31;3.72;;;1.63;;
48651;SDS011;34442;52.362;-1.302;2023-08-24T01:27:01;3.55;;;1.55;;
48651;SDS011;34442;52.362;-1.302;2023-08-24T01:29:29;2.70;;;1.73;;
48651;SDS011;34442;52.362;-1.302;2023-08-24T01:31:55;3.13;;;1.45;;
48651;SDS011;34442;52.362;-1.302;2023-08-24T01:34:20;3.03;;;1.60;;
48651;SDS011;34442;52.362;-1.302;2023-08-24T01:36:46;4.22;;;1.70;;
48651;SDS011;34442;52.362;-1.302;2023-08-24T01:39:14;2.58;;;1.23;;
48651;SDS011;34442;52.362;-1.302;2023-08-24T01:41:52;3.10;;;1.52;;
48651;SDS011;34442;52.362;-1.302;2023-08-24T01:44:18;2.33;;;1.45;;
48651;SDS011;34442;52.362;-1.302;2023-08-24T01:46:47;2.13;;;1.20;;
48651;SDS011;34442;52.362;-1.302;2023-08-24T01:49:17;3.38;;;1.45;;
48651;SDS011;34442;52.362;-1.302;2023-08-24T01:51:43;3.17;;;1.67;;
48651;SDS011;34442;52.362;-1.302;2023-08-24T01:54:10;2.40;;;1.23;;
48651;SDS011;34442;52.362;-1.302;2023-08-24T01:56:36;2.80;;;1.30;;
48651;SDS011;34442;52.362;-1.302;2023-08-24T01:59:03;3.08;;;1.45;;
48651;SDS011;34442;52.362;-1.302;2023-08-24T02:01:28;3.13;;;1.42;;
48651;SDS011;34442;52.362;-1.302;2023-08-24T02:03:53;2.58;;;1.50;;
48651;SDS011;34442;52.362;-1.302;2023-08-24T02:06:19;3.03;;;1.42;;
48651;SDS011;34442;52.362;-1.302;2023-08-24T02:08:45;3.50;;;1.83;;
48651;SDS011;34442;52.362;-1.302;2023-08-24T02:11:10;3.10;;;1.30;;
48651;SDS011;34442;52.362;-1.302;2023-08-24T02:13:35;3.50;;;1.70;;
48651;SDS011;34442;52.362;-1.302;2023-08-24T02:16:04;2.42;;;1.30;;
48651;SDS011;34442;52.362;-1.302;2023-08-24T02:18:31;2.65;;;1.70;;
48651;SDS011;34442;52.362;-1.302;2023-08-24T02:20:57;2.60;;;1.48;;
48651;SDS011;34442;52.362;-1.302;2023-08-24T02:23:22;2.75;;;1.42;;
48651;SDS011;34442;52.362;-1.302;2023-08-24T02:25:48;2.53;;;1.30;;
48651;SDS011;34442;52.362;-1.302;2023-08-24T02:28:13;2.92;;;1.20;;
48651;SDS011;34442;52.362;-1.302;2023-08-24T02:30:39;2.45;;;1.27;;
48651;SDS011;34442;52.362;-1.302;2023-08-24T02:33:04;3.28;;;1.40;;
48651;SDS011;34442;52.362;-1.302;2023-08-24T02:35:30;2.88;;;1.50;;
48651;SDS011;34442;52.362;-1.302;2023-08-24T02:37:56;2.60;;;1.40;;
48651;SDS011;34442;52.362;-1.302;2023-08-24T02:40:22;2.88;;;1.58;;
48651;SDS011;34442;52.362;-1.302;2023-08-24T02:42:47;2.42;;;1.20;;
48651;SDS011;34442;52.362;-1.302;2023-08-24T02:45:13;2.28;;;1.33;;
48651;SDS011;34442;52.362;-1.302;2023-08-24T02:47:38;2.95;;;1.40;;
48651;SDS011;34442;52.362;-1.302;2023-08-24T02:50:04;2.67;;;1.20;;
48651;SDS011;34442;52.362;-1.302;2023-08-24T02:52:31;3.60;;;1.70;;
48651;SDS011;34442;52.362;-1.302;2023-08-24T02:54:57;2.10;;;1.20;;
48651;SDS011;34442;52.362;-1.302;2023-08-24T02:57:23;2.65;;;1.27;;
48651;SDS011;34442;52.362;-1.302;2023-08-24T02:59:49;3.17;;;1.30;;
48651;SDS011;34442;52.362;-1.302;2023-08-24T03:02:14;2.50;;;1.40;;
48651;SDS011;34442;52.362;-1.302;2023-08-24T03:04:40;2.35;;;1.20;;
48651;SDS011;34442;52.362;-1.302;2023-08-24T03:07:05;3.22;;;1.38;;
48651;SDS011;34442;52.362;-1.302;2023-08-24T03:09:34;3.05;;;1.30;;
48651;SDS011;34442;52.362;-1.302;2023-08-24T03:12:00;2.00;;;1.30;;
48651;SDS011;34442;52.362;-1.302;2023-08-24T03:14:25;2.78;;;1.30;;
48651;SDS011;34442;52.362;-1.302;2023-08-24T03:16:50;2.42;;;1.33;;
48651;SDS011;34442;52.362;-1.302;2023-08-24T03:19:16;2.63;;;1.38;;
48651;SDS011;34442;52.362;-1.302;2023-08-24T03:21:43;2.20;;;1.30;;
48651;SDS011;34442;52.362;-1.302;2023-08-24T03:24:08;2.15;;;1.20;;
48651;SDS011;34442;52.362;-1.302;2023-08-24T03:26:34;3.45;;;1.55;;
48651;SDS011;34442;52.362;-1.302;2023-08-24T03:28:59;2.35;;;1.33;;
48651;SDS011;34442;52.362;-1.302;2023-08-24T03:31:25;3.05;;;1.50;;
48651;SDS011;34442;52.362;-1.302;2023-08-24T03:33:51;2.65;;;1.23;;
48651;SDS011;34442;52.362;-1.302;2023-08-24T03:36:17;2.28;;;1.20;;
48651;SDS011;34442;52.362;-1.302;2023-08-24T03:38:42;3.25;;;1.45;;
48651;SDS011;34442;52.362;-1.302;2023-08-24T03:41:07;2.88;;;1.50;;
48651;SDS011;34442;52.362;-1.302;2023-08-24T03:43:33;2.38;;;1.25;;
48651;SDS011;34442;52.362;-1.302;2023-08-24T03:46:00;2.88;;;1.40;;
48651;SDS011;34442;52.362;-1.302;2023-08-24T03:48:26;2.92;;;1.50;;
48651;SDS011;34442;52.362;-1.302;2023-08-24T03:50:55;3.53;;;1.25;;
48651;SDS011;34442;52.362;-1.302;2023-08-24T03:53:21;2.85;;;1.30;;
48651;SDS011;34442;52.362;-1.302;2023-08-24T03:55:48;2.40;;;1.30;;
48651;SDS011;34442;52.362;-1.302;2023-08-24T03:58:16;2.33;;;1.23;;
48651;SDS011;34442;52.362;-1.302;2023-08-24T04:00:42;2.17;;;1.20;;
48651;SDS011;34442;52.362;-1.302;2023-08-24T04:03:08;2.97;;;1.48;;
48651;SDS011;34442;52.362;-1.302;2023-08-24T04:05:34;2.10;;;1.20;;
48651;SDS011;34442;52.362;-1.302;2023-08-24T04:07:59;2.55;;;1.30;;
48651;SDS011;34442;52.362;-1.302;2023-08-24T04:10:26;2.45;;;1.27;;
48651;SDS011;34442;52.362;-1.302;2023-08-24T04:12:52;2.45;;;1.33;;
48651;SDS011;34442;52.362;-1.302;2023-08-24T04:15:18;2.35;;;1.35;;
48651;SDS011;34442;52.362;-1.302;2023-08-24T04:17:43;2.67;;;1.40;;
48651;SDS011;34442;52.362;-1.302;2023-08-24T04:20:09;2.47;;;1.35;;
48651;SDS011;34442;52.362;-1.302;2023-08-24T04:22:35;2.33;;;1.40;;
48651;SDS011;34442;52.362;-1.302;2023-08-24T04:25:00;1.73;;;1.13;;
48651;SDS011;34442;52.362;-1.302;2023-08-24T04:27:26;2.28;;;1.33;;
48651;SDS011;34442;52.362;-1.302;2023-08-24T04:29:51;3.28;;;1.50;;
48651;SDS011;34442;52.362;-1.302;2023-08-24T04:32:17;2.63;;;1.35;;
48651;SDS011;34442;52.362;-1.302;2023-08-24T04:34:42;3.65;;;1.40;;
48651;SDS011;34442;52.362;-1.302;2023-08-24T04:37:08;2.08;;;1.10;;
48651;SDS011;34442;52.362;-1.302;2023-08-24T04:39:33;2.50;;;1.30;;
48651;SDS011;34442;52.362;-1.302;2023-08-24T04:41:58;2.47;;;1.52;;
48651;SDS011;34442;52.362;-1.302;2023-08-24T04:44:24;2.55;;;1.33;;
48651;SDS011;34442;52.362;-1.302;2023-08-24T04:46:49;2.55;;;1.30;;
48651;SDS011;34442;52.362;-1.302;2023-08-24T04:49:15;2.28;;;1.20;;
48651;SDS011;34442;52.362;-1.302;2023-08-24T04:51:40;2.92;;;1.27;;
48651;SDS011;34442;52.362;-1.302;2023-08-24T04:54:06;2.03;;;1.13;;
48651;SDS011;34442;52.362;-1.302;2023-08-24T04:56:31;3.53;;;1.52;;
48651;SDS011;34442;52.362;-1.302;2023-08-24T04:58:57;2.42;;;1.35;;
48651;SDS011;34442;52.362;-1.302;2023-08-24T05:01:23;2.40;;;1.40;;
48651;SDS011;34442;52.362;-1.302;2023-08-24T05:03:52;2.05;;;1.23;;
48651;SDS011;34442;52.362;-1.302;2023-08-24T05:06:20;2.42;;;1.33;;
48651;SDS011;34442;52.362;-1.302;2023-08-24T05:08:46;2.78;;;1.25;;
48651;SDS011;34442;52.362;-1.302;2023-08-24T05:11:12;1.83;;;1.17;;
48651;SDS011;34442;52.362;-1.302;2023-08-24T05:13:38;1.73;;;1.10;;
48651;SDS011;34442;52.362;-1.302;2023-08-24T05:16:05;3.25;;;1.48;;
48651;SDS011;34442;52.362;-1.302;2023-08-24T05:18:30;2.35;;;1.35;;
48651;SDS011;34442;52.362;-1.302;2023-08-24T05:20:55;2.35;;;1.20;;
48651;SDS011;34442;52.362;-1.302;2023-08-24T05:23:21;2.67;;;1.23;;
48651;SDS011;34442;52.362;-1.302;2023-08-24T05:25:47;2.75;;;1.35;;
48651;SDS011;34442;52.362;-1.302;2023-08-24T05:28:12;2.90;;;1.45;;
48651;SDS011;34442;52.362;-1.302;2023-08-24T05:30:38;2.22;;;1.35;;
48651;SDS011;34442;52.362;-1.302;2023-08-24T05:33:03;2.70;;;1.30;;
48651;SDS011;34442;52.362;-1.302;2023-08-24T05:35:29;3.40;;;1.40;;
48651;SDS011;34442;52.362;-1.302;2023-08-24T05:37:57;2.50;;;1.33;;
48651;SDS011;34442;52.362;-1.302;2023-08-24T05:40:22;2.08;;;1.20;;
48651;SDS011;34442;52.362;-1.302;2023-08-24T05:42:48;2.85;;;1.33;;
48651;SDS011;34442;52.362;-1.302;2023-08-24T05:45:13;2.55;;;1.30;;
48651;SDS011;34442;52.362;-1.302;2023-08-24T05:47:39;1.88;;;1.30;;
48651;SDS011;34442;52.362;-1.302;2023-08-24T05:50:05;3.05;;;1.42;;
48651;SDS011;34442;52.362;-1.302;2023-08-24T05:52:30;1.65;;;1.08;;
48651;SDS011;34442;52.362;-1.302;2023-08-24T05:54:56;2.55;;;1.30;;
48651;SDS011;34442;52.362;-1.302;2023-08-24T05:57:22;1.88;;;1.15;;
48651;SDS011;34442;52.362;-1.302;2023-08-24T05:59:47;2.78;;;1.38;;
48651;SDS011;34442;52.362;-1.302;2023-08-24T06:02:13;2.75;;;1.38;;
48651;SDS011;34442;52.362;-1.302;2023-08-24T06:04:38;2.20;;;1.23;;
48651;SDS011;34442;52.362;-1.302;2023-08-24T06:07:04;3.03;;;1.40;;
48651;SDS011;34442;52.362;-1.302;2023-08-24T06:09:30;2.22;;;1.20;;
48651;SDS011;34442;52.362;-1.302;2023-08-24T06:11:56;2.53;;;1.30;;
48651;SDS011;34442;52.362;-1.302;2023-08-24T06:14:22;2.10;;;1.13;;
48651;SDS011;34442;52.362;-1.302;2023-08-24T06:16:47;2.38;;;1.23;;
48651;SDS011;34442;52.362;-1.302;2023-08-24T06:19:13;2.45;;;1.30;;
48651;SDS011;34442;52.362;-1.302;2023-08-24T06:21:39;2.17;;;1.10;;
48651;SDS011;34442;52.362;-1.302;2023-08-24T06:24:04;1.85;;;1.08;;
48651;SDS011;34442;52.362;-1.302;2023-08-24T06:26:30;2.45;;;1.15;;
48651;SDS011;34442;52.362;-1.302;2023-08-24T06:28:55;2.33;;;1.05;;
48651;SDS011;34442;52.362;-1.302;2023-08-24T06:31:21;1.83;;;1.00;;
48651;SDS011;34442;52.362;-1.302;2023-08-24T06:33:46;2.67;;;1.25;;
48651;SDS011;34442;52.362;-1.302;2023-08-24T06:36:14;1.63;;;1.05;;
48651;SDS011;34442;52.362;-1.302;2023-08-24T06:38:40;2.75;;;1.42;;
48651;SDS011;34442;52.362;-1.302;2023-08-24T06:41:05;2.35;;;1.23;;
48651;SDS011;34442;52.362;-1.302;2023-08-24T06:43:32;3.00;;;1.55;;
48651;SDS011;34442;52.362;-1.302;2023-08-24T06:45:57;2.10;;;1.00;;
48651;SDS011;34442;52.362;-1.302;2023-08-24T06:48:23;2.13;;;1.10;;
48651;SDS011;34442;52.362;-1.302;2023-08-24T06:50:48;2.42;;;1.20;;
48651;SDS011;34442;52.362;-1.302;2023-08-24T06:53:14;1.95;;;1.10;;
48651;SDS011;34442;52.362;-1.302;2023-08-24T06:55:42;2.83;;;1.17;;
48651;SDS011;34442;52.362;-1.302;2023-08-24T06:58:08;2.00;;;1.00;;
48651;SDS011;34442;52.362;-1.302;2023-08-24T07:00:33;1.73;;;1.05;;
48651;SDS011;34442;52.362;-1.302;2023-08-24T07:02:58;2.67;;;1.40;;
48651;SDS011;34442;52.362;-1.302;2023-08-24T07:05:24;2.30;;;1.20;;
48651;SDS011;34442;52.362;-1.302;2023-08-24T07:07:50;2.15;;;1.10;;
48651;SDS011;34442;52.362;-1.302;2023-08-24T07:10:16;2.40;;;1.20;;
48651;SDS011;34442;52.362;-1.302;2023-08-24T07:12:42;2.47;;;1.23;;
48651;SDS011;34442;52.362;-1.302;2023-08-24T07:15:10;2.63;;;1.27;;
48651;SDS011;34442;52.362;-1.302;2023-08-24T07:17:36;2.97;;;1.40;;
48651;SDS011;34442;52.362;-1.302;2023-08-24T07:20:02;3.15;;;1.30;;
48651;SDS011;34442;52.362;-1.302;2023-08-24T07:22:30;3.45;;;1.40;;
48651;SDS011;34442;52.362;-1.302;2023-08-24T07:24:56;2.38;;;1.20;;
48651;SDS011;34442;52.362;-1.302;2023-08-24T07:27:21;3.38;;;1.65;;
48651;SDS011;34442;52.362;-1.302;2023-08-24T07:29:47;2.03;;;1.15;;
48651;SDS011;34442;52.362;-1.302;2023-08-24T07:32:12;2.35;;;1.08;;
48651;SDS011;34442;52.362;-1.302;2023-08-24T07:34:38;2.72;;;1.35;;
48651;SDS011;34442;52.362;-1.302;2023-08-24T07:37:06;2.53;;;1.20;;
48651;SDS011;34442;52.362;-1.302;2023-08-24T07:39:32;2.42;;;1.27;;
48651;SDS011;34442;52.362;-1.302;2023-08-24T07:41:58;3.03;;;1.25;;
48651;SDS011;34442;52.362;-1.302;2023-08-24T07:44:24;2.33;;;1.10;;
48651;SDS011;34442;52.362;-1.302;2023-08-24T07:46:49;1.92;;;1.02;;
48651;SDS011;34442;52.362;-1.302;2023-08-24T07:49:15;2.35;;;1.30;;
48651;SDS011;34442;52.362;-1.302;2023-08-24T07:51:40;2.30;;;1.30;;
48651;SDS011;34442;52.362;-1.302;2023-08-24T07:54:07;3.38;;;1.50;;
48651;SDS011;34442;52.362;-1.302;2023-08-24T07:56:33;2.55;;;1.33;;
48651;SDS011;34442;52.362;-1.302;2023-08-24T07:58:59;3.33;;;1.45;;
48651;SDS011;34442;52.362;-1.302;2023-08-24T08:01:24;2.42;;;1.20;;
48651;SDS011;34442;52.362;-1.302;2023-08-24T08:03:50;1.55;;;1.00;;
48651;SDS011;34442;52.362;-1.302;2023-08-24T08:06:15;1.70;;;1.00;;
48651;SDS011;34442;52.362;-1.302;2023-08-24T08:08:41;2.22;;;1.10;;
48651;SDS011;34442;52.362;-1.302;2023-08-24T08:11:07;0.93;;;0.75;;
48651;SDS011;34442;52.362;-1.302;2023-08-24T08:13:33;1.42;;;0.88;;
48651;SDS011;34442;52.362;-1.302;2023-08-24T08:16:02;1.45;;;0.98;;
48651;SDS011;34442;52.362;-1.302;2023-08-24T08:18:29;1.63;;;0.80;;
48651;SDS011;34442;52.362;-1.302;2023-08-24T08:20:54;2.13;;;0.90;;
48651;SDS011;34442;52.362;-1.302;2023-08-24T08:23:20;1.63;;;1.00;;
48651;SDS011;34442;52.362;-1.302;2023-08-24T08:25:45;1.35;;;0.80;;
48651;SDS011;34442;52.362;-1.302;2023-08-24T08:28:10;2.22;;;1.40;;
48651;SDS011;34442;52.362;-1.302;2023-08-24T08:30:36;1.75;;;1.00;;
48651;SDS011;34442;52.362;-1.302;2023-08-24T08:33:04;1.67;;;1.08;;
48651;SDS011;34442;52.362;-1.302;2023-08-24T08:35:29;1.83;;;1.00;;
48651;SDS011;34442;52.362;-1.302;2023-08-24T08:37:55;2.33;;;1.23;;
48651;SDS011;34442;52.362;-1.302;2023-08-24T08:40:20;1.38;;;0.93;;
48651;SDS011;34442;52.362;-1.302;2023-08-24T08:42:49;1.63;;;0.90;;
48651;SDS011;34442;52.362;-1.302;2023-08-24T08:45:15;2.03;;;1.25;;
48651;SDS011;34442;52.362;-1.302;2023-08-24T08:47:42;2.17;;;1.10;;
48651;SDS011;34442;52.362;-1.302;2023-08-24T08:50:07;2.25;;;1.35;;
48651;SDS011;34442;52.362;-1.302;2023-08-24T08:52:34;1.92;;;1.20;;
48651;SDS011;34442;52.362;-1.302;2023-08-24T08:55:00;2.20;;;1.10;;
48651;SDS011;34442;52.362;-1.302;2023-08-24T08:57:26;1.60;;;0.95;;
48651;SDS011;34442;52.362;-1.302;2023-08-24T08:59:52;2.17;;;1.02;;
48651;SDS011;34442;52.362;-1.302;2023-08-24T09:02:18;2.25;;;1.00;;
48651;SDS011;34442;52.362;-1.302;2023-08-24T09:04:47;1.88;;;1.00;;
48651;SDS011;34442;52.362;-1.302;2023-08-24T09:07:18;2.17;;;1.08;;
48651;SDS011;34442;52.362;-1.302;2023-08-24T09:09:45;2.00;;;1.00;;
48651;SDS011;34442;52.362;-1.302;2023-08-24T09:12:11;2.42;;;1.13;;
48651;SDS011;34442;52.362;-1.302;2023-08-24T09:14:36;2.30;;;1.10;;
48651;SDS011;34442;52.362;-1.302;2023-08-24T09:17:02;2.38;;;1.10;;
48651;SDS011;34442;52.362;-1.302;2023-08-24T09:19:28;1.17;;;0.70;;
48651;SDS011;34442;52.362;-1.302;2023-08-24T09:22:00;2.13;;;1.20;;
48651;SDS011;34442;52.362;-1.302;2023-08-24T09:24:30;1.52;;;0.93;;
48651;SDS011;34442;52.362;-1.302;2023-08-24T09:27:00;1.73;;;0.90;;
48651;SDS011;34442;52.362;-1.302;2023-08-24T09:29:40;0.60;;;0.60;;
48651;SDS011;34442;52.362;-1.302;2023-08-24T09:32:07;2.85;;;1.00;;
48651;SDS011;34442;52.362;-1.302;2023-08-24T09:34:33;2.50;;;1.00;;
48651;SDS011;34442;52.362;-1.302;2023-08-24T09:37:01;1.52;;;0.95;;
48651;SDS011;34442;52.362;-1.302;2023-08-24T09:39:29;2.13;;;1.10;;
48651;SDS011;34442;52.362;-1.302;2023-08-24T09:41:55;1.85;;;1.05;;
48651;SDS011;34442;52.362;-1.302;2023-08-24T09:44:28;2.30;;;1.15;;
48651;SDS011;34442;52.362;-1.302;2023-08-24T09:46:53;1.23;;;0.80;;
48651;SDS011;34442;52.362;-1.302;2023-08-24T09:49:19;1.52;;;0.98;;
48651;SDS011;34442;52.362;-1.302;2023-08-24T09:51:44;2.15;;;0.90;;
48651;SDS011;34442;52.362;-1.302;2023-08-24T09:54:10;1.40;;;0.88;;
48651;SDS011;34442;52.362;-1.302;2023-08-24T09:56:37;1.60;;;0.88;;
48651;SDS011;34442;52.362;-1.302;2023-08-24T09:59:17;1.35;;;0.70;;
48651;SDS011;34442;52.362;-1.302;2023-08-24T10:01:47;1.52;;;0.90;;
48651;SDS011;34442;52.362;-1.302;2023-08-24T10:04:17;0.70;;;0.60;;
48651;SDS011;34442;52.362;-1.302;2023-08-24T10:09:22;0.95;;;0.73;;
48651;SDS011;34442;52.362;-1.302;2023-08-24T10:11:52;1.15;;;0.77;;
48651;SDS011;34442;52.362;-1.302;2023-08-24T10:16:52;1.08;;;0.60;;
48651;SDS011;34442;52.362;-1.302;2023-08-24T10:19:17;1.50;;;0.90;;
48651;SDS011;34442;52.362;-1.302;2023-08-24T10:21:44;2.08;;;0.93;;
48651;SDS011;34442;52.362;-1.302;2023-08-24T10:24:12;1.83;;;0.75;;
48651;SDS011;34442;52.362;-1.302;2023-08-24T10:26:38;1.70;;;0.80;;
48651;SDS011;34442;52.362;-1.302;2023-08-24T10:29:05;1.33;;;0.80;;
48651;SDS011;34442;52.362;-1.302;2023-08-24T10:31:31;1.33;;;0.93;;
48651;SDS011;34442;52.362;-1.302;2023-08-24T10:34:00;3.20;;;1.00;;
48651;SDS011;34442;52.362;-1.302;2023-08-24T10:36:26;1.48;;;0.77;;
48651;SDS011;34442;52.362;-1.302;2023-08-24T10:38:55;1.33;;;1.00;;
48651;SDS011;34442;52.362;-1.302;2023-08-24T10:41:21;1.20;;;0.82;;
48651;SDS011;34442;52.362;-1.302;2023-08-24T10:43:51;1.58;;;0.80;;
48651;SDS011;34442;52.362;-1.302;2023-08-24T10:46:16;1.65;;;0.80;;
48651;SDS011;34442;52.362;-1.302;2023-08-24T10:54:00;1.92;;;0.90;;
48651;SDS011;34442;52.362;-1.302;2023-08-24T10:56:37;2.03;;;1.17;;
48651;SDS011;34442;52.362;-1.302;2023-08-24T10:59:10;1.75;;;0.95;;
48651;SDS011;34442;52.362;-1.302;2023-08-24T11:01:39;0.75;;;0.70;;
48651;SDS011;34442;52.362;-1.302;2023-08-24T11:04:18;1.02;;;0.70;;
48651;SDS011;34442;52.362;-1.302;2023-08-24T11:06:57;1.00;;;0.70;;
48651;SDS011;34442;52.362;-1.302;2023-08-24T11:09:24;0.55;;;0.45;;
48651;SDS011;34442;52.362;-1.302;2023-08-24T11:11:57;0.88;;;0.60;;
48651;SDS011;34442;52.362;-1.302;2023-08-24T11:14:24;1.27;;;0.70;;
48651;SDS011;34442;52.362;-1.302;2023-08-24T11:16:54;0.88;;;0.57;;
48651;SDS011;34442;52.362;-1.302;2023-08-24T11:19:22;0.50;;;0.50;;
48651;SDS011;34442;52.362;-1.302;2023-08-24T11:21:48;0.68;;;0.50;;
48651;SDS011;34442;52.362;-1.302;2023-08-24T11:24:14;0.57;;;0.57;;
48651;SDS011;34442;52.362;-1.302;2023-08-24T11:26:45;1.17;;;0.70;;
48651;SDS011;34442;52.362;-1.302;2023-08-24T11:29:11;0.90;;;0.70;;
48651;SDS011;34442;52.362;-1.302;2023-08-24T11:31:37;0.55;;;0.50;;
48651;SDS011;34442;52.362;-1.302;2023-08-24T11:34:03;0.80;;;0.47;;
48651;SDS011;34442;52.362;-1.302;2023-08-24T11:36:48;1.23;;;0.60;;
48651;SDS011;34442;52.362;-1.302;2023-08-24T11:39:18;1.35;;;0.70;;
48651;SDS011;34442;52.362;-1.302;2023-08-24T11:44:24;0.95;;;0.60;;
48651;SDS011;34442;52.362;-1.302;2023-08-24T11:46:49;2.15;;;0.93;;
48651;SDS011;34442;52.362;-1.302;2023-08-24T11:49:15;1.08;;;0.50;;
48651;SDS011;34442;52.362;-1.302;2023-08-24T11:51:41;1.42;;;0.70;;
48651;SDS011;34442;52.362;-1.302;2023-08-24T11:54:06;1.63;;;0.63;;
48651;SDS011;34442;52.362;-1.302;2023-08-24T11:56:34;0.55;;;0.55;;
48651;SDS011;34442;52.362;-1.302;2023-08-24T11:59:05;1.40;;;0.73;;
48651;SDS011;34442;52.362;-1.302;2023-08-24T12:01:31;1.83;;;1.00;;
48651;SDS011;34442;52.362;-1.302;2023-08-24T12:03:57;1.20;;;0.70;;
48651;SDS011;34442;52.362;-1.302;2023-08-24T12:06:26;1.13;;;0.73;;
48651;SDS011;34442;52.362;-1.302;2023-08-24T12:08:52;1.50;;;0.60;;
48651;SDS011;34442;52.362;-1.302;2023-08-24T12:11:19;1.10;;;0.60;;
48651;SDS011;34442;52.362;-1.302;2023-08-24T12:13:46;0.65;;;0.40;;
48651;SDS011;34442;52.362;-1.302;2023-08-24T12:16:15;1.15;;;0.50;;
48651;SDS011;34442;52.362;-1.302;2023-08-24T12:21:17;1.38;;;0.60;;
48651;SDS011;34442;52.362;-1.302;2023-08-24T12:23:44;2.00;;;0.85;;
48651;SDS011;34442;52.362;-1.302;2023-08-24T12:26:22;0.90;;;0.70;;
48651;SDS011;34442;52.362;-1.302;2023-08-24T12:28:51;1.55;;;0.52;;
48651;SDS011;34442;52.362;-1.302;2023-08-24T12:31:19;1.08;;;0.50;;
48651;SDS011;34442;52.362;-1.302;2023-08-24T12:33:45;1.23;;;0.50;;
48651;SDS011;34442;52.362;-1.302;2023-08-24T12:36:22;1.52;;;0.70;;
48651;SDS011;34442;52.362;-1.302;2023-08-24T12:38:48;1.38;;;0.70;;
48651;SDS011;34442;52.362;-1.302;2023-08-24T12:41:13;1.58;;;0.55;;
48651;SDS011;34442;52.362;-1.302;2023-08-24T12:43:39;0.82;;;0.57;;
48651;SDS011;34442;52.362;-1.302;2023-08-24T12:46:04;1.08;;;0.57;;
48651;SDS011;34442;52.362;-1.302;2023-08-24T12:48:29;0.75;;;0.47;;
48651;SDS011;34442;52.362;-1.302;2023-08-24T12:50:55;0.70;;;0.50;;
48651;SDS011;34442;52.362;-1.302;2023-08-24T12:53:20;0.60;;;0.55;;
48651;SDS011;34442;52.362;-1.302;2023-08-24T12:55:45;1.20;;;0.57;;
48651;SDS011;34442;52.362;-1.302;2023-08-24T12:58:11;0.88;;;0.57;;
48651;SDS011;34442;52.362;-1.302;2023-08-24T13:00:36;0.30;;;0.30;;
48651;SDS011;34442;52.362;-1.302;2023-08-24T13:03:02;0.57;;;0.30;;
48651;SDS011;34442;52.362;-1.302;2023-08-24T13:05:27;0.68;;;0.40;;
48651;SDS011;34442;52.362;-1.302;2023-08-24T13:07:53;2.03;;;0.63;;
48651;SDS011;34442;52.362;-1.302;2023-08-24T13:10:18;1.05;;;0.57;;
48651;SDS011;34442;52.362;-1.302;2023-08-24T13:12:44;1.63;;;0.70;;
48651;SDS011;34442;52.362;-1.302;2023-08-24T13:15:09;1.65;;;0.70;;
48651;SDS011;34442;52.362;-1.302;2023-08-24T13:17:39;1.05;;;0.60;;
48651;SDS011;34442;52.362;-1.302;2023-08-24T13:20:05;0.90;;;0.60;;
48651;SDS011;34442;52.362;-1.302;2023-08-24T13:22:31;0.73;;;0.50;;
48651;SDS011;34442;52.362;-1.302;2023-08-24T13:24:57;0.73;;;0.50;;
48651;SDS011;34442;52.362;-1.302;2023-08-24T13:27:22;0.85;;;0.32;;
48651;SDS011;34442;52.362;-1.302;2023-08-24T13:29:48;1.05;;;0.50;;
48651;SDS011;34442;52.362;-1.302;2023-08-24T13:32:13;0.70;;;0.50;;
48651;SDS011;34442;52.362;-1.302;2023-08-24T13:34:39;0.50;;;0.35;;
48651;SDS011;34442;52.362;-1.302;2023-08-24T13:37:04;1.20;;;0.60;;
48651;SDS011;34442;52.362;-1.302;2023-08-24T13:39:30;0.47;;;0.47;;
48651;SDS011;34442;52.362;-1.302;2023-08-24T13:41:56;2.13;;;0.70;;
48651;SDS011;34442;52.362;-1.302;2023-08-24T13:44:22;1.20;;;0.63;;
48651;SDS011;34442;52.362;-1.302;2023-08-24T13:46:47;1.52;;;0.60;;
48651;SDS011;34442;52.362;-1.302;2023-08-24T13:49:13;0.82;;;0.70;;
48651;SDS011;34442;52.362;-1.302;2023-08-24T13:51:39;1.17;;;0.63;;
48651;SDS011;34442;52.362;-1.302;2023-08-24T13:54:14;1.35;;;0.50;;
48651;SDS011;34442;52.362;-1.302;2023-08-24T13:56:46;1.05;;;0.65;;
48651;SDS011;34442;52.362;-1.302;2023-08-24T13:59:13;1.58;;;0.60;;
48651;SDS011;34442;52.362;-1.302;2023-08-24T14:01:39;2.25;;;0.80;;
48651;SDS011;34442;52.362;-1.302;2023-08-24T14:04:05;1.10;;;0.73;;
48651;SDS011;34442;52.362;-1.302;2023-08-24T14:06:31;1.27;;;0.80;;
48651;SDS011;34442;52.362;-1.302;2023-08-24T14:08:59;1.25;;;0.75;;
48651;SDS011;34442;52.362;-1.302;2023-08-24T14:11:25;1.15;;;0.60;;
48651;SDS011;34442;52.362;-1.302;2023-08-24T14:13:50;0.65;;;0.63;;
48651;SDS011;34442;52.362;-1.302;2023-08-24T14:16:17;1.10;;;0.50;;
48651;SDS011;34442;52.362;-1.302;2023-08-24T14:18:42;0.60;;;0.57;;
48651;SDS011;34442;52.362;-1.302;2023-08-24T14:21:08;0.98;;;0.60;;
48651;SDS011;34442;52.362;-1.302;2023-08-24T14:23:35;0.88;;;0.50;;
48651;SDS011;34442;52.362;-1.302;2023-08-24T14:26:00;1.50;;;0.77;;
48651;SDS011;34442;52.362;-1.302;2023-08-24T14:28:26;1.00;;;0.60;;
48651;SDS011;34442;52.362;-1.302;2023-08-24T14:31:13;1.00;;;0.50;;
48651;SDS011;34442;52.362;-1.302;2023-08-24T14:33:41;1.05;;;0.52;;
48651;SDS011;34442;52.362;-1.302;2023-08-24T14:36:06;1.27;;;0.70;;
48651;SDS011;34442;52.362;-1.302;2023-08-24T14:38:32;1.08;;;0.60;;
48651;SDS011;34442;52.362;-1.302;2023-08-24T14:40:57;0.77;;;0.73;;
48651;SDS011;34442;52.362;-1.302;2023-08-24T14:43:27;1.83;;;0.80;;
48651;SDS011;34442;52.362;-1.302;2023-08-24T14:45:53;0.82;;;0.70;;
48651;SDS011;34442;52.362;-1.302;2023-08-24T14:48:19;1.83;;;0.80;;
48651;SDS011;34442;52.362;-1.302;2023-08-24T14:50:44;1.80;;;0.95;;
48651;SDS011;34442;52.362;-1.302;2023-08-24T14:53:10;1.05;;;0.70;;